createdAt,value
2022-12-08T00:00:31.215Z,42.47
2022-12-08T00:03:00.726Z,42.33
2022-12-08T00:05:46.853Z,50.72
2022-12-08T00:08:32.858Z,49.15
2022-12-08T00:11:04.776Z,43.80
2022-12-08T00:13:34.976Z,34.25
2022-12-08T00:16:05.816Z,33.55
2022-12-08T00:18:36.116Z,32.38
2022-12-08T00:21:05.862Z,27.20
2022-12-08T00:23:35.079Z,30.13
2022-12-08T00:26:05.596Z,26.70
2022-12-08T00:28:35.702Z,28.30
2022-12-08T00:31:12.331Z,32.67
2022-12-08T00:33:41.881Z,30.30
2022-12-08T00:36:13.417Z,36.67
2022-12-08T00:38:45.121Z,31.20
2022-12-08T00:41:17.329Z,33.75
2022-12-08T00:43:47.033Z,27.15
2022-12-08T00:46:17.723Z,34.63
2022-12-08T00:48:47.154Z,30.70
2022-12-08T00:51:16.360Z,34.30
2022-12-08T00:53:45.557Z,35.50
2022-12-08T00:56:14.748Z,38.08
2022-12-08T00:58:44.129Z,37.42
2022-12-08T01:01:13.870Z,32.13
2022-12-08T01:03:45.660Z,25.63
2022-12-08T01:06:15.182Z,34.72
2022-12-08T01:08:44.910Z,28.95
2022-12-08T01:11:16.728Z,32.97
2022-12-08T01:13:46.236Z,21.20
2022-12-08T01:16:22.063Z,25.98
2022-12-08T01:18:53.273Z,24.90
2022-12-08T01:21:23.611Z,35.83
2022-12-08T01:23:52.927Z,33.80
2022-12-08T01:26:22.937Z,23.17
2022-12-08T01:28:52.404Z,27.98
2022-12-08T01:31:23.177Z,30.42
2022-12-08T01:33:53.923Z,32.17
2022-12-08T01:36:26.164Z,33.33
2022-12-08T01:38:56.926Z,23.90
2022-12-08T01:41:29.223Z,23.17
2022-12-08T01:44:01.709Z,35.33
2022-12-08T01:46:33.736Z,35.53
2022-12-08T01:49:09.211Z,23.45
2022-12-08T01:51:44.839Z,25.67
2022-12-08T01:56:49.523Z,15.52
2022-12-08T01:59:19.880Z,13.88
2022-12-08T02:01:49.851Z,13.55
2022-12-08T02:04:20.827Z,17.38
2022-12-08T02:06:51.455Z,13.88
2022-12-08T02:09:22.041Z,16.58
2022-12-08T02:11:52.504Z,24.55
2022-12-08T02:14:21.712Z,12.93
2022-12-08T02:17:01.065Z,14.20
2022-12-08T02:19:58.297Z,15.48
2022-12-08T02:22:35.393Z,17.05
2022-12-08T02:25:14.136Z,14.13
2022-12-08T02:27:49.617Z,15.35
2022-12-08T02:30:24.607Z,7.25
2022-12-08T02:33:27.449Z,12.32
2022-12-08T02:36:01.374Z,11.85
2022-12-08T02:38:39.897Z,10.02
2022-12-08T02:41:20.963Z,12.77
2022-12-08T02:43:57.538Z,14.35
2022-12-08T02:46:33.061Z,14.02
2022-12-08T02:51:37.359Z,13.65
2022-12-08T02:54:08.203Z,14.20
2022-12-08T02:57:02.409Z,10.70
2022-12-08T02:59:46.604Z,14.73
2022-12-08T03:02:43.315Z,11.27
2022-12-08T03:05:24.455Z,11.20
2022-12-08T03:08:03.245Z,8.10
2022-12-08T03:10:38.030Z,9.35
2022-12-08T03:13:13.776Z,10.40
2022-12-08T03:15:45.131Z,9.82
2022-12-08T03:18:17.561Z,6.80
2022-12-08T03:20:48.634Z,9.73
2022-12-08T03:23:21.490Z,11.05
2022-12-08T03:25:56.486Z,17.00
2022-12-08T03:28:26.160Z,8.95
2022-12-08T03:31:00.038Z,11.57
2022-12-08T03:33:33.905Z,12.27
2022-12-08T03:36:06.773Z,14.82
2022-12-08T03:38:45.826Z,17.35
2022-12-08T03:41:21.142Z,16.60
2022-12-08T03:43:51.488Z,12.30
2022-12-08T03:48:50.412Z,11.55
2022-12-08T03:51:20.307Z,12.20
2022-12-08T03:53:52.051Z,17.52
2022-12-08T03:56:26.041Z,17.67
2022-12-08T03:58:56.378Z,14.23
2022-12-08T04:01:27.924Z,17.33
2022-12-08T04:04:00.694Z,11.57
2022-12-08T04:06:30.135Z,14.05
2022-12-08T04:09:01.252Z,15.55
2022-12-08T04:11:30.742Z,17.00
2022-12-08T04:14:00.082Z,13.25
2022-12-08T04:16:30.116Z,8.82
2022-12-08T04:19:01.812Z,13.95
2022-12-08T04:21:31.372Z,15.90
2022-12-08T04:24:03.127Z,13.98
2022-12-08T04:26:32.713Z,9.65
2022-12-08T04:29:05.223Z,9.73
2022-12-08T04:31:34.864Z,12.07
2022-12-08T04:34:12.332Z,14.35
2022-12-08T04:36:42.615Z,17.52
2022-12-08T04:39:13.374Z,13.25
2022-12-08T04:41:42.548Z,16.35
2022-12-08T04:44:12.270Z,12.40
2022-12-08T04:46:44.977Z,12.38
2022-12-08T04:49:27.548Z,13.68
2022-12-08T04:55:16.222Z,14.40
2022-12-08T04:57:51.227Z,11.85
2022-12-08T05:00:29.326Z,13.68
2022-12-08T05:03:06.196Z,20.70
2022-12-08T05:05:37.061Z,17.92
2022-12-08T05:08:09.910Z,15.27
2022-12-08T05:10:40.937Z,14.02
2022-12-08T05:13:10.343Z,17.67
2022-12-08T05:15:39.566Z,16.63
2022-12-08T05:18:09.293Z,13.68
2022-12-08T05:20:40.733Z,16.20
2022-12-08T05:23:10.146Z,16.20
2022-12-08T05:25:44.261Z,16.38
2022-12-08T05:28:40.166Z,16.38
2022-12-08T05:31:03.989Z,14.88
2022-12-08T05:33:36.639Z,15.35
2022-12-08T05:36:07.968Z,15.73
2022-12-08T05:38:37.441Z,14.95
2022-12-08T05:41:08.955Z,14.50
2022-12-08T05:43:59.161Z,15.45
2022-12-08T05:46:30.076Z,13.02
2022-12-08T05:49:01.095Z,14.98
2022-12-08T05:51:30.942Z,15.68
2022-12-08T05:54:00.959Z,18.05
2022-12-08T05:56:31.776Z,15.38
2022-12-08T05:59:01.077Z,14.25
2022-12-08T06:01:32.236Z,14.38
2022-12-08T06:04:03.133Z,13.13
2022-12-08T06:06:33.956Z,14.38
2022-12-08T06:09:04.859Z,17.60
2022-12-08T06:11:36.608Z,11.02
2022-12-08T06:14:06.431Z,16.55
2022-12-08T06:16:37.024Z,17.50
2022-12-08T06:19:06.340Z,17.77
2022-12-08T06:21:35.569Z,13.82
2022-12-08T06:24:05.205Z,16.15
2022-12-08T06:26:36.837Z,11.25
2022-12-08T06:29:07.034Z,15.05
2022-12-08T06:31:36.195Z,13.90
2022-12-08T06:34:06.566Z,16.20
2022-12-08T06:36:38.814Z,11.35
2022-12-08T06:39:09.054Z,13.48
2022-12-08T06:41:59.766Z,13.20
2022-12-08T06:44:29.040Z,16.67
2022-12-08T06:46:58.193Z,13.40
2022-12-08T06:49:27.327Z,15.30
2022-12-08T06:51:56.562Z,13.93
2022-12-08T06:54:25.954Z,14.68
2022-12-08T06:56:59.344Z,16.85
2022-12-08T06:59:28.551Z,19.58
2022-12-08T07:01:57.788Z,17.63
2022-12-08T07:04:27.925Z,13.93
2022-12-08T07:06:57.060Z,15.07
2022-12-08T07:09:26.549Z,15.85
2022-12-08T07:11:57.247Z,19.60
2022-12-08T07:14:26.568Z,18.40
2022-12-08T07:16:55.832Z,13.27
2022-12-08T07:19:26.043Z,14.02
2022-12-08T07:21:55.335Z,13.68
2022-12-08T07:24:24.722Z,17.38
2022-12-08T07:27:03.346Z,14.63
2022-12-08T07:29:34.368Z,14.15
2022-12-08T07:32:03.808Z,13.20
2022-12-08T07:34:34.179Z,14.52
2022-12-08T07:37:06.205Z,18.08
2022-12-08T07:39:35.579Z,14.90
2022-12-08T07:42:05.177Z,15.70
2022-12-08T07:44:36.408Z,15.68
2022-12-08T07:47:05.934Z,14.73
2022-12-08T07:49:35.492Z,14.45
2022-12-08T07:52:07.446Z,13.35
2022-12-08T07:54:40.807Z,13.82
2022-12-08T07:57:11.844Z,13.52
2022-12-08T07:59:45.862Z,15.30
2022-12-08T08:02:26.912Z,13.98
2022-12-08T08:04:56.454Z,13.50
2022-12-08T08:07:25.736Z,15.90
2022-12-08T08:09:55.179Z,16.98
2022-12-08T08:12:32.536Z,16.15
2022-12-08T08:15:05.461Z,14.20
2022-12-08T08:17:35.414Z,12.82
2022-12-08T08:20:07.476Z,13.15
2022-12-08T08:22:37.290Z,16.05
2022-12-08T08:25:08.263Z,14.60
2022-12-08T08:27:37.561Z,13.77
2022-12-08T08:30:15.340Z,14.68
2022-12-08T08:32:47.526Z,14.73
2022-12-08T08:35:17.090Z,15.23
2022-12-08T08:37:49.077Z,12.13
2022-12-08T08:40:19.425Z,16.75
2022-12-08T08:42:48.595Z,13.75
2022-12-08T08:45:27.247Z,14.55
2022-12-08T08:47:56.501Z,17.63
2022-12-08T08:50:26.120Z,13.40
2022-12-08T08:52:55.236Z,11.85
2022-12-08T08:55:25.361Z,14.00
2022-12-08T08:57:54.597Z,15.40
2022-12-08T09:00:25.759Z,16.42
2022-12-08T09:02:55.032Z,20.38
2022-12-08T09:05:24.228Z,17.83
2022-12-08T09:07:53.523Z,18.00
2022-12-08T09:10:22.861Z,20.55
2022-12-08T09:12:52.470Z,18.38
2022-12-08T09:15:21.781Z,14.23
2022-12-08T09:17:52.402Z,13.38
2022-12-08T09:20:21.699Z,16.23
2022-12-08T09:22:50.795Z,19.52
2022-12-08T09:25:21.162Z,17.23
2022-12-08T09:27:50.449Z,18.67
2022-12-08T09:30:21.020Z,18.08
2022-12-08T09:32:50.171Z,15.07
2022-12-08T09:35:20.789Z,21.73
2022-12-08T09:37:51.124Z,19.60
2022-12-08T09:40:50.583Z,16.30
2022-12-08T09:43:39.173Z,17.63
2022-12-08T09:46:12.387Z,16.30
2022-12-08T09:48:46.938Z,23.92
2022-12-08T09:51:20.764Z,21.35
2022-12-08T09:53:54.176Z,21.15
2022-12-08T09:56:33.462Z,18.13
2022-12-08T09:59:19.660Z,19.90
2022-12-08T10:01:49.081Z,16.52
2022-12-08T10:04:26.536Z,17.50
2022-12-08T10:07:06.513Z,19.17
2022-12-08T10:09:43.897Z,14.55
2022-12-08T10:12:30.008Z,16.52
2022-12-08T10:15:32.275Z,21.63
2022-12-08T10:18:09.665Z,22.52
2022-12-08T10:20:41.998Z,19.17
2022-12-08T10:23:25.275Z,23.17
2022-12-08T10:26:01.472Z,17.75
2022-12-08T10:28:46.640Z,23.05
2022-12-08T10:31:23.354Z,17.80
2022-12-08T10:33:59.695Z,23.42
2022-12-08T10:36:47.083Z,21.60
2022-12-08T10:39:40.702Z,22.75
2022-12-08T10:45:36.598Z,21.33
2022-12-08T10:48:09.067Z,14.93
2022-12-08T10:50:43.981Z,22.70
2022-12-08T10:56:19.604Z,17.58
2022-12-08T10:58:50.402Z,18.60
2022-12-08T11:01:35.799Z,21.70
2022-12-08T11:04:08.256Z,15.85
2022-12-08T11:06:39.261Z,20.95
2022-12-08T11:09:27.800Z,19.85
2022-12-08T11:12:07.719Z,23.92
2022-12-08T11:14:51.524Z,20.58
2022-12-08T11:17:28.298Z,22.50
2022-12-08T11:20:02.038Z,19.73
2022-12-08T11:22:34.914Z,17.73
2022-12-08T11:25:12.529Z,19.42
2022-12-08T11:27:47.454Z,22.52
2022-12-08T11:30:20.935Z,16.48
2022-12-08T11:33:01.743Z,24.50
2022-12-08T11:35:37.622Z,25.67
2022-12-08T11:38:28.993Z,26.83
2022-12-08T11:41:04.521Z,18.85
2022-12-08T11:43:56.149Z,23.00
2022-12-08T11:46:34.754Z,25.15
2022-12-08T11:49:22.433Z,20.65
2022-12-08T11:52:02.637Z,18.35
2022-12-08T11:54:37.317Z,27.92
2022-12-08T11:57:31.726Z,28.08
2022-12-08T12:00:07.896Z,25.73
2022-12-08T12:02:46.210Z,24.58
2022-12-08T12:05:47.633Z,27.63
2022-12-08T12:08:33.676Z,23.17
2022-12-08T12:11:38.430Z,19.88
2022-12-08T12:17:01.995Z,14.70
2022-12-08T12:19:38.222Z,25.50
2022-12-08T12:22:27.639Z,23.90
2022-12-08T12:24:57.262Z,25.15
2022-12-08T12:27:32.958Z,27.85
2022-12-08T12:33:04.480Z,23.27
2022-12-08T12:35:38.441Z,22.55
2022-12-08T12:38:32.150Z,22.48
2022-12-08T12:41:04.196Z,23.33
2022-12-08T12:43:42.430Z,24.48
2022-12-08T12:46:58.507Z,24.10
2022-12-08T12:50:11.779Z,22.50
2022-12-08T12:52:50.820Z,23.83
2022-12-08T12:55:53.064Z,21.48
2022-12-08T12:58:43.136Z,19.20
2022-12-08T13:01:54.665Z,20.23
2022-12-08T13:04:34.292Z,21.95
2022-12-08T13:07:05.806Z,17.77
2022-12-08T13:09:39.685Z,27.70
2022-12-08T13:12:14.519Z,26.20
2022-12-08T13:14:49.238Z,29.50
2022-12-08T13:17:30.923Z,40.90
2022-12-08T13:20:03.174Z,39.38
2022-12-08T13:23:04.311Z,32.45
2022-12-08T13:25:51.662Z,40.13
2022-12-08T13:28:27.491Z,44.50
2022-12-08T13:30:58.508Z,43.45
2022-12-08T13:33:37.626Z,33.30
2022-12-08T13:36:24.102Z,33.47
2022-12-08T13:38:58.462Z,42.25
2022-12-08T13:41:35.205Z,50.55
2022-12-08T13:45:03.588Z,48.25
2022-12-08T13:58:41.598Z,37.65
2022-12-08T14:01:17.259Z,40.15
2022-12-08T14:06:45.331Z,40.65
2022-12-08T14:09:18.234Z,29.75
2022-12-08T14:11:53.872Z,32.92
2022-12-08T14:17:16.298Z,30.63
2022-12-08T14:19:54.148Z,32.03
2022-12-08T14:22:24.683Z,38.35
2022-12-08T14:24:55.512Z,48.30
2022-12-08T14:27:29.417Z,41.33
2022-12-08T14:30:00.289Z,34.25
2022-12-08T14:32:32.092Z,44.97
2022-12-08T14:35:04.595Z,48.65
2022-12-08T14:37:35.810Z,39.83
2022-12-08T14:40:10.177Z,44.83
2022-12-08T14:42:49.122Z,53.55
2022-12-08T14:45:21.143Z,44.70
2022-12-08T14:47:51.596Z,39.92
2022-12-08T14:50:42.261Z,54.88
2022-12-08T14:53:16.819Z,52.70
2022-12-08T14:55:48.058Z,43.08
2022-12-08T14:58:28.289Z,45.58
2022-12-08T15:01:00.163Z,45.78
2022-12-08T15:03:32.304Z,45.85
2022-12-08T15:06:06.611Z,50.63
2022-12-08T15:08:37.007Z,51.40
2022-12-08T15:11:31.848Z,65.60
2022-12-08T15:14:02.834Z,70.32
2022-12-08T15:16:40.758Z,68.30
2022-12-08T15:19:30.200Z,87.43
2022-12-08T15:22:01.543Z,116.35
2022-12-08T15:24:32.479Z,93.40
2022-12-08T15:27:01.683Z,108.05
2022-12-08T15:29:33.119Z,84.68
2022-12-08T15:32:03.773Z,110.43
2022-12-08T15:34:34.194Z,102.45
2022-12-08T15:37:05.642Z,71.75
2022-12-08T15:39:36.390Z,106.28
2022-12-08T15:42:12.753Z,75.45
2022-12-08T15:44:43.889Z,54.72
2022-12-08T15:47:18.573Z,56.17
2022-12-08T15:49:48.655Z,58.57
2022-12-08T15:52:19.029Z,44.90
2022-12-08T15:54:49.480Z,58.85
2022-12-08T15:58:04.061Z,63.03
2022-12-08T16:00:51.645Z,69.45
2022-12-08T16:07:04.716Z,56.05
2022-12-08T16:09:12.700Z,63.67
2022-12-08T16:12:08.771Z,63.60
2022-12-08T16:17:36.419Z,65.28
2022-12-08T16:20:07.462Z,61.58
2022-12-08T16:22:56.882Z,53.78
2022-12-08T16:25:28.756Z,50.33
2022-12-08T16:28:23.301Z,56.03
2022-12-08T16:30:52.188Z,50.10
2022-12-08T16:33:48.256Z,51.83
2022-12-08T16:36:17.454Z,60.40
2022-12-08T16:38:59.860Z,62.90
2022-12-08T16:41:46.130Z,68.88
2022-12-08T16:44:15.689Z,54.67
2022-12-08T16:46:46.274Z,66.78
2022-12-08T16:49:21.059Z,54.63
2022-12-08T16:51:50.319Z,66.13
2022-12-08T16:54:20.773Z,47.40
2022-12-08T16:56:53.033Z,73.55
2022-12-08T16:59:23.282Z,64.25
2022-12-08T17:01:52.493Z,61.92
2022-12-08T17:04:31.387Z,59.08
2022-12-08T17:07:02.481Z,60.97
2022-12-08T17:09:34.104Z,58.78
2022-12-08T17:12:06.447Z,51.70
2022-12-08T17:14:36.802Z,52.17
2022-12-08T17:17:06.575Z,46.20
2022-12-08T17:19:37.482Z,42.15
2022-12-08T17:22:06.728Z,64.32
2022-12-08T17:24:36.011Z,54.35
2022-12-08T17:27:06.833Z,59.30
2022-12-08T17:29:36.792Z,59.47
2022-12-08T17:32:06.290Z,55.95
2022-12-08T17:34:36.948Z,49.42
2022-12-08T17:37:06.148Z,62.97
2022-12-08T17:39:35.236Z,56.42
2022-12-08T17:42:04.553Z,50.72
2022-12-08T17:44:35.701Z,59.78
2022-12-08T17:47:05.806Z,72.75
2022-12-08T17:49:36.592Z,57.50
2022-12-08T17:52:08.535Z,69.88
2022-12-08T17:54:37.797Z,69.20
2022-12-08T17:57:07.331Z,61.65
2022-12-08T17:59:36.520Z,65.65
2022-12-08T18:02:06.078Z,61.53
2022-12-08T18:04:36.865Z,51.25
2022-12-08T18:07:06.149Z,66.45
2022-12-08T18:09:35.438Z,55.22
2022-12-08T18:12:04.670Z,44.88
2022-12-08T18:14:34.007Z,51.45
2022-12-08T18:17:03.442Z,51.17
2022-12-08T18:19:32.797Z,55.58
2022-12-08T18:22:04.489Z,47.85
2022-12-08T18:24:33.698Z,47.97
2022-12-08T18:27:02.825Z,48.45
2022-12-08T18:29:32.109Z,45.13
2022-12-08T18:32:01.337Z,47.78
2022-12-08T18:34:30.543Z,47.38
2022-12-08T18:36:59.830Z,54.63
2022-12-08T18:39:31.953Z,45.67
2022-12-08T18:42:03.071Z,41.22
2022-12-08T18:44:33.213Z,43.20
2022-12-08T18:47:02.381Z,44.13
2022-12-08T18:49:31.493Z,38.08
2022-12-08T18:52:01.629Z,45.45
2022-12-08T18:54:58.073Z,43.20
2022-12-08T18:57:21.459Z,42.47
2022-12-08T18:59:50.753Z,49.47
2022-12-08T19:02:20.249Z,49.00
2022-12-08T19:04:49.506Z,38.97
2022-12-08T19:07:19.053Z,41.78
2022-12-08T19:09:49.677Z,35.58
2022-12-08T19:12:19.079Z,42.33
2022-12-08T19:14:48.364Z,41.80
2022-12-08T19:17:17.710Z,49.38
2022-12-08T19:19:46.900Z,35.10
2022-12-08T19:22:16.164Z,37.03
2022-12-08T19:24:45.568Z,40.20
2022-12-08T19:27:16.164Z,38.00
2022-12-08T19:29:45.432Z,38.70
2022-12-08T19:32:14.706Z,39.10
2022-12-08T19:34:44.021Z,36.00
2022-12-08T19:37:13.454Z,30.55
2022-12-08T19:39:59.887Z,39.20
2022-12-08T19:42:47.697Z,43.05
2022-12-08T19:45:20.267Z,34.28
2022-12-08T19:47:50.167Z,39.42
2022-12-08T19:50:36.648Z,37.20
2022-12-08T19:53:07.164Z,44.47
2022-12-08T19:55:36.843Z,44.15
2022-12-08T19:58:08.406Z,39.47
2022-12-08T20:00:39.683Z,44.47
2022-12-08T20:03:09.305Z,43.17
2022-12-08T20:05:38.964Z,52.08
2022-12-08T20:08:08.368Z,47.33
2022-12-08T20:10:39.799Z,42.53
2022-12-08T20:13:28.434Z,47.83
2022-12-08T20:15:57.978Z,46.50
2022-12-08T20:18:28.969Z,37.72
2022-12-08T20:20:58.651Z,46.80
2022-12-08T20:23:27.893Z,52.30
2022-12-08T20:25:57.124Z,44.95
2022-12-08T20:28:27.870Z,49.90
2022-12-08T20:30:57.182Z,46.35
2022-12-08T20:33:54.873Z,49.20
2022-12-08T20:36:26.224Z,51.28
2022-12-08T20:38:57.433Z,49.60
2022-12-08T20:41:26.930Z,43.88
2022-12-08T20:44:08.135Z,44.85
2022-12-08T20:46:37.626Z,42.40
2022-12-08T20:49:09.884Z,58.50
2022-12-08T20:51:39.157Z,49.33
2022-12-08T20:54:22.652Z,51.95
2022-12-08T20:56:51.995Z,46.45
2022-12-08T20:59:22.991Z,36.92
2022-12-08T21:01:54.893Z,42.60
2022-12-08T21:04:24.731Z,39.72
2022-12-08T21:06:54.220Z,34.65
2022-12-08T21:09:23.652Z,36.42
2022-12-08T21:11:53.124Z,30.02
2022-12-08T21:14:23.911Z,37.28
2022-12-08T21:16:54.877Z,39.35
2022-12-08T21:19:24.414Z,40.88
2022-12-08T21:21:53.828Z,46.30
2022-12-08T21:24:23.142Z,48.80
2022-12-08T21:26:52.442Z,42.10
2022-12-08T21:29:23.128Z,48.70
2022-12-08T21:31:52.468Z,44.90
2022-12-08T21:34:21.838Z,44.38
2022-12-08T21:36:51.077Z,46.78
2022-12-08T21:39:20.504Z,35.83
2022-12-08T21:42:15.339Z,37.20
2022-12-08T21:44:46.153Z,37.08
2022-12-08T21:47:16.434Z,38.42
2022-12-08T21:49:45.694Z,35.20
2022-12-08T21:52:15.149Z,28.50
2022-12-08T21:54:44.354Z,33.10
2022-12-08T21:57:13.876Z,31.02
2022-12-08T21:59:43.487Z,28.92
2022-12-08T22:02:20.778Z,34.88
2022-12-08T22:04:58.784Z,29.20
2022-12-08T22:07:28.042Z,34.13
2022-12-08T22:09:57.220Z,39.92
2022-12-08T22:12:26.466Z,44.30
2022-12-08T22:14:55.717Z,64.88
2022-12-08T22:17:26.735Z,45.33
2022-12-08T22:19:56.015Z,43.72
2022-12-08T22:22:25.306Z,33.50
2022-12-08T22:24:55.489Z,32.83
2022-12-08T22:27:24.763Z,43.70
2022-12-08T22:29:55.579Z,38.15
2022-12-08T22:32:26.525Z,32.08
2022-12-08T22:34:55.768Z,26.83
2022-12-08T22:37:25.190Z,39.33
2022-12-08T22:39:54.466Z,32.17
2022-12-08T22:42:23.602Z,35.83
2022-12-08T22:44:52.720Z,43.15
2022-12-08T22:47:21.934Z,35.70
2022-12-08T22:49:52.546Z,34.00
2022-12-08T22:52:21.811Z,38.17
2022-12-08T22:54:51.257Z,41.97
2022-12-08T22:57:20.709Z,37.45
2022-12-08T22:59:49.849Z,37.40
2022-12-08T23:02:19.252Z,36.03
2022-12-08T23:04:48.737Z,39.33
2022-12-08T23:07:22.956Z,42.88
2022-12-08T23:09:52.824Z,35.63
2022-12-08T23:12:22.021Z,41.75
2022-12-08T23:14:51.181Z,29.73
2022-12-08T23:17:21.498Z,26.60
2022-12-08T23:19:50.958Z,41.17
2022-12-08T23:22:22.992Z,37.55
2022-12-08T23:24:52.297Z,31.70
2022-12-08T23:27:21.506Z,22.63
2022-12-08T23:29:50.714Z,31.80
2022-12-08T23:32:20.011Z,32.03
2022-12-08T23:34:49.510Z,37.10
2022-12-08T23:37:18.753Z,32.13
2022-12-08T23:39:49.418Z,36.17
2022-12-08T23:42:18.638Z,43.58
2022-12-08T23:44:47.843Z,43.05
2022-12-08T23:47:17.223Z,46.33
2022-12-08T23:49:46.648Z,43.45
2022-12-08T23:52:16.216Z,50.58
2022-12-08T23:54:45.611Z,49.30
2022-12-08T23:57:16.384Z,70.90
2022-12-08T23:59:45.699Z,63.90
